sensor_id;sensor_type;location;lat;lon;timestamp;P1;durP1;ratioP1;P2;durP2;ratioP2
52072;SDS011;38074;51.232;6.826;2023-09-07T00:10:28;5.80;;;3.33;;
52072;SDS011;38074;51.232;6.826;2023-09-07T00:17:44;6.00;;;3.83;;
52072;SDS011;38074;51.232;6.826;2023-09-07T00:24:59;7.57;;;3.60;;
52072;SDS011;38074;51.232;6.826;2023-09-07T00:32:15;5.73;;;3.27;;
52072;SDS011;38074;51.232;6.826;2023-09-07T00:39:30;7.07;;;3.57;;
52072;SDS011;38074;51.232;6.826;2023-09-07T00:46:46;5.63;;;3.67;;
52072;SDS011;38074;51.232;6.826;2023-09-07T00:54:01;5.93;;;3.63;;
52072;SDS011;38074;51.232;6.826;2023-09-07T01:01:17;7.57;;;3.50;;
52072;SDS011;38074;51.232;6.826;2023-09-07T01:08:35;5.23;;;3.30;;
52072;SDS011;38074;51.232;6.826;2023-09-07T01:15:56;4.25;;;3.00;;
52072;SDS011;38074;51.232;6.826;2023-09-07T01:23:12;5.37;;;3.07;;
52072;SDS011;38074;51.232;6.826;2023-09-07T01:30:28;6.87;;;3.43;;
52072;SDS011;38074;51.232;6.826;2023-09-07T01:37:43;6.03;;;3.80;;
52072;SDS011;38074;51.232;6.826;2023-09-07T01:44:59;5.10;;;3.10;;
52072;SDS011;38074;51.232;6.826;2023-09-07T01:52:14;6.03;;;3.30;;
52072;SDS011;38074;51.232;6.826;2023-09-07T01:59:30;8.60;;;3.35;;
52072;SDS011;38074;51.232;6.826;2023-09-07T02:06:46;4.37;;;3.27;;
52072;SDS011;38074;51.232;6.826;2023-09-07T02:14:01;5.47;;;3.15;;
52072;SDS011;38074;51.232;6.826;2023-09-07T02:21:17;5.30;;;3.00;;
52072;SDS011;38074;51.232;6.826;2023-09-07T02:28:33;4.22;;;3.22;;
52072;SDS011;38074;51.232;6.826;2023-09-07T02:35:48;4.30;;;2.92;;
52072;SDS011;38074;51.232;6.826;2023-09-07T02:43:04;5.33;;;3.47;;
52072;SDS011;38074;51.232;6.826;2023-09-07T02:50:20;4.97;;;3.00;;
52072;SDS011;38074;51.232;6.826;2023-09-07T02:57:36;5.20;;;3.37;;
52072;SDS011;38074;51.232;6.826;2023-09-07T03:04:54;5.68;;;3.50;;
52072;SDS011;38074;51.232;6.826;2023-09-07T03:12:13;7.70;;;2.97;;
52072;SDS011;38074;51.232;6.826;2023-09-07T03:19:29;7.93;;;3.07;;
52072;SDS011;38074;51.232;6.826;2023-09-07T03:26:44;4.88;;;3.38;;
52072;SDS011;38074;51.232;6.826;2023-09-07T03:34:00;5.00;;;3.08;;
52072;SDS011;38074;51.232;6.826;2023-09-07T03:41:15;4.30;;;3.00;;
52072;SDS011;38074;51.232;6.826;2023-09-07T03:48:31;6.23;;;3.60;;
52072;SDS011;38074;51.232;6.826;2023-09-07T03:55:46;6.97;;;2.80;;
52072;SDS011;38074;51.232;6.826;2023-09-07T04:03:02;4.83;;;2.90;;
52072;SDS011;38074;51.232;6.826;2023-09-07T04:10:18;3.40;;;2.90;;
52072;SDS011;38074;51.232;6.826;2023-09-07T04:17:33;5.10;;;3.33;;
52072;SDS011;38074;51.232;6.826;2023-09-07T04:24:55;6.03;;;3.80;;
52072;SDS011;38074;51.232;6.826;2023-09-07T04:32:10;5.20;;;3.00;;
52072;SDS011;38074;51.232;6.826;2023-09-07T04:39:26;4.90;;;3.17;;
52072;SDS011;38074;51.232;6.826;2023-09-07T04:46:41;4.78;;;3.20;;
52072;SDS011;38074;51.232;6.826;2023-09-07T04:53:57;4.28;;;2.80;;
52072;SDS011;38074;51.232;6.826;2023-09-07T05:01:12;4.00;;;2.97;;
52072;SDS011;38074;51.232;6.826;2023-09-07T05:08:28;4.80;;;3.47;;
52072;SDS011;38074;51.232;6.826;2023-09-07T05:15:47;4.53;;;2.78;;
52072;SDS011;38074;51.232;6.826;2023-09-07T05:23:04;7.72;;;3.25;;
52072;SDS011;38074;51.232;6.826;2023-09-07T05:30:19;6.40;;;2.80;;
52072;SDS011;38074;51.232;6.826;2023-09-07T05:37:35;5.50;;;3.03;;
52072;SDS011;38074;51.232;6.826;2023-09-07T05:44:50;7.60;;;3.70;;
52072;SDS011;38074;51.232;6.826;2023-09-07T05:52:07;6.95;;;3.05;;
52072;SDS011;38074;51.232;6.826;2023-09-07T05:59:22;4.20;;;2.87;;
52072;SDS011;38074;51.232;6.826;2023-09-07T06:06:38;5.18;;;3.30;;
52072;SDS011;38074;51.232;6.826;2023-09-07T06:13:54;6.60;;;3.40;;
52072;SDS011;38074;51.232;6.826;2023-09-07T06:21:09;7.00;;;3.47;;
52072;SDS011;38074;51.232;6.826;2023-09-07T06:28:24;6.30;;;3.30;;
52072;SDS011;38074;51.232;6.826;2023-09-07T06:35:40;8.30;;;3.20;;
52072;SDS011;38074;51.232;6.826;2023-09-07T06:42:55;12.07;;;3.70;;
52072;SDS011;38074;51.232;6.826;2023-09-07T06:50:12;7.83;;;3.33;;
52072;SDS011;38074;51.232;6.826;2023-09-07T06:57:27;6.38;;;3.95;;
52072;SDS011;38074;51.232;6.826;2023-09-07T07:04:43;4.70;;;3.57;;
52072;SDS011;38074;51.232;6.826;2023-09-07T07:12:00;9.68;;;3.47;;
52072;SDS011;38074;51.232;6.826;2023-09-07T07:19:16;6.23;;;3.17;;
52072;SDS011;38074;51.232;6.826;2023-09-07T07:26:32;6.68;;;2.53;;
52072;SDS011;38074;51.232;6.826;2023-09-07T07:33:47;5.17;;;2.50;;
52072;SDS011;38074;51.232;6.826;2023-09-07T07:41:03;4.20;;;2.67;;
52072;SDS011;38074;51.232;6.826;2023-09-07T07:48:19;3.40;;;2.20;;
52072;SDS011;38074;51.232;6.826;2023-09-07T07:55:38;4.37;;;2.37;;
52072;SDS011;38074;51.232;6.826;2023-09-07T08:02:54;3.35;;;2.00;;
52072;SDS011;38074;51.232;6.826;2023-09-07T08:10:09;3.40;;;1.87;;
52072;SDS011;38074;51.232;6.826;2023-09-07T08:17:25;3.53;;;2.10;;
52072;SDS011;38074;51.232;6.826;2023-09-07T08:24:41;2.73;;;1.80;;
52072;SDS011;38074;51.232;6.826;2023-09-07T08:31:57;2.57;;;1.87;;
52072;SDS011;38074;51.232;6.826;2023-09-07T08:39:14;2.50;;;1.60;;
52072;SDS011;38074;51.232;6.826;2023-09-07T08:46:30;3.20;;;1.70;;
52072;SDS011;38074;51.232;6.826;2023-09-07T09:01:02;5.88;;;2.00;;
52072;SDS011;38074;51.232;6.826;2023-09-07T09:08:18;2.10;;;1.50;;
52072;SDS011;38074;51.232;6.826;2023-09-07T09:15:35;2.10;;;1.67;;
52072;SDS011;38074;51.232;6.826;2023-09-07T09:22:51;2.60;;;1.77;;
52072;SDS011;38074;51.232;6.826;2023-09-07T09:30:08;2.40;;;2.00;;
52072;SDS011;38074;51.232;6.826;2023-09-07T09:37:24;2.83;;;1.87;;
52072;SDS011;38074;51.232;6.826;2023-09-07T09:44:40;2.37;;;1.40;;
52072;SDS011;38074;51.232;6.826;2023-09-07T09:51:56;3.13;;;1.60;;
52072;SDS011;38074;51.232;6.826;2023-09-07T09:59:14;2.80;;;1.45;;
52072;SDS011;38074;51.232;6.826;2023-09-07T10:06:30;5.07;;;2.47;;
52072;SDS011;38074;51.232;6.826;2023-09-07T10:13:46;12.40;;;4.33;;
52072;SDS011;38074;51.232;6.826;2023-09-07T10:21:12;11.27;;;4.28;;
52072;SDS011;38074;51.232;6.826;2023-09-07T10:28:28;14.00;;;4.57;;
52072;SDS011;38074;51.232;6.826;2023-09-07T10:35:44;12.27;;;4.13;;
52072;SDS011;38074;51.232;6.826;2023-09-07T10:43:02;9.20;;;3.57;;
52072;SDS011;38074;51.232;6.826;2023-09-07T10:50:19;8.50;;;3.53;;
52072;SDS011;38074;51.232;6.826;2023-09-07T10:57:40;13.07;;;4.60;;
52072;SDS011;38074;51.232;6.826;2023-09-07T11:04:57;9.00;;;3.65;;
52072;SDS011;38074;51.232;6.826;2023-09-07T11:12:13;5.77;;;2.90;;
52072;SDS011;38074;51.232;6.826;2023-09-07T11:19:34;5.78;;;3.00;;
52072;SDS011;38074;51.232;6.826;2023-09-07T11:26:49;6.05;;;2.90;;
52072;SDS011;38074;51.232;6.826;2023-09-07T11:34:08;6.37;;;2.50;;
52072;SDS011;38074;51.232;6.826;2023-09-07T11:41:25;7.78;;;3.00;;
52072;SDS011;38074;51.232;6.826;2023-09-07T11:48:41;7.03;;;2.87;;
52072;SDS011;38074;51.232;6.826;2023-09-07T11:55:56;5.17;;;2.30;;
52072;SDS011;38074;51.232;6.826;2023-09-07T12:03:13;5.77;;;2.90;;
52072;SDS011;38074;51.232;6.826;2023-09-07T12:10:28;7.90;;;2.40;;
52072;SDS011;38074;51.232;6.826;2023-09-07T12:17:44;5.83;;;2.23;;
52072;SDS011;38074;51.232;6.826;2023-09-07T12:24:59;4.60;;;2.20;;
52072;SDS011;38074;51.232;6.826;2023-09-07T12:32:15;5.43;;;2.30;;
52072;SDS011;38074;51.232;6.826;2023-09-07T12:39:31;3.90;;;2.17;;
52072;SDS011;38074;51.232;6.826;2023-09-07T12:46:47;4.77;;;2.13;;
52072;SDS011;38074;51.232;6.826;2023-09-07T12:54:02;3.33;;;2.17;;
52072;SDS011;38074;51.232;6.826;2023-09-07T13:01:18;3.03;;;1.90;;
52072;SDS011;38074;51.232;6.826;2023-09-07T13:08:34;4.27;;;1.77;;
52072;SDS011;38074;51.232;6.826;2023-09-07T13:15:49;3.23;;;1.63;;
52072;SDS011;38074;51.232;6.826;2023-09-07T13:23:05;3.77;;;1.87;;
52072;SDS011;38074;51.232;6.826;2023-09-07T13:30:20;4.33;;;2.00;;
52072;SDS011;38074;51.232;6.826;2023-09-07T13:37:36;4.43;;;1.90;;
52072;SDS011;38074;51.232;6.826;2023-09-07T13:44:51;2.67;;;1.70;;
52072;SDS011;38074;51.232;6.826;2023-09-07T13:52:07;5.53;;;1.93;;
52072;SDS011;38074;51.232;6.826;2023-09-07T13:59:22;2.43;;;1.53;;
52072;SDS011;38074;51.232;6.826;2023-09-07T14:06:40;5.05;;;2.22;;
52072;SDS011;38074;51.232;6.826;2023-09-07T14:13:56;3.40;;;1.80;;
52072;SDS011;38074;51.232;6.826;2023-09-07T14:21:13;4.33;;;1.60;;
52072;SDS011;38074;51.232;6.826;2023-09-07T14:28:32;2.53;;;1.70;;
52072;SDS011;38074;51.232;6.826;2023-09-07T14:35:47;2.47;;;1.80;;
52072;SDS011;38074;51.232;6.826;2023-09-07T14:43:09;3.67;;;2.10;;
52072;SDS011;38074;51.232;6.826;2023-09-07T14:50:25;2.38;;;1.50;;
52072;SDS011;38074;51.232;6.826;2023-09-07T14:57:41;2.97;;;1.90;;
52072;SDS011;38074;51.232;6.826;2023-09-07T15:04:57;3.28;;;1.60;;
52072;SDS011;38074;51.232;6.826;2023-09-07T15:12:13;2.53;;;1.60;;
52072;SDS011;38074;51.232;6.826;2023-09-07T15:19:29;22.90;;;7.67;;
52072;SDS011;38074;51.232;6.826;2023-09-07T15:26:45;28.13;;;9.07;;
52072;SDS011;38074;51.232;6.826;2023-09-07T15:34:01;21.63;;;7.70;;
52072;SDS011;38074;51.232;6.826;2023-09-07T15:41:16;22.53;;;8.33;;
52072;SDS011;38074;51.232;6.826;2023-09-07T15:48:32;18.57;;;7.07;;
52072;SDS011;38074;51.232;6.826;2023-09-07T15:55:48;12.77;;;6.17;;
52072;SDS011;38074;51.232;6.826;2023-09-07T16:03:03;15.97;;;5.20;;
52072;SDS011;38074;51.232;6.826;2023-09-07T16:10:19;8.47;;;3.83;;
52072;SDS011;38074;51.232;6.826;2023-09-07T16:17:35;9.90;;;4.10;;
52072;SDS011;38074;51.232;6.826;2023-09-07T16:24:50;6.57;;;3.20;;
52072;SDS011;38074;51.232;6.826;2023-09-07T16:32:06;6.30;;;2.70;;
52072;SDS011;38074;51.232;6.826;2023-09-07T16:39:21;5.33;;;2.90;;
52072;SDS011;38074;51.232;6.826;2023-09-07T16:46:37;7.80;;;3.17;;
52072;SDS011;38074;51.232;6.826;2023-09-07T16:53:54;18.60;;;5.63;;
52072;SDS011;38074;51.232;6.826;2023-09-07T17:01:09;13.67;;;4.43;;
52072;SDS011;38074;51.232;6.826;2023-09-07T17:08:26;11.38;;;4.03;;
52072;SDS011;38074;51.232;6.826;2023-09-07T17:15:41;9.13;;;4.00;;
52072;SDS011;38074;51.232;6.826;2023-09-07T17:22:57;9.50;;;3.10;;
52072;SDS011;38074;51.232;6.826;2023-09-07T17:30:13;9.50;;;2.97;;
52072;SDS011;38074;51.232;6.826;2023-09-07T17:37:28;7.97;;;3.20;;
52072;SDS011;38074;51.232;6.826;2023-09-07T17:44:44;6.87;;;2.93;;
52072;SDS011;38074;51.232;6.826;2023-09-07T17:52:00;9.87;;;3.23;;
52072;SDS011;38074;51.232;6.826;2023-09-07T17:59:15;5.27;;;2.30;;
52072;SDS011;38074;51.232;6.826;2023-09-07T18:06:31;4.10;;;2.37;;
52072;SDS011;38074;51.232;6.826;2023-09-07T18:13:48;5.85;;;2.45;;
52072;SDS011;38074;51.232;6.826;2023-09-07T18:21:04;6.83;;;2.63;;
52072;SDS011;38074;51.232;6.826;2023-09-07T18:28:22;4.30;;;2.00;;
52072;SDS011;38074;51.232;6.826;2023-09-07T18:35:37;7.00;;;2.50;;
52072;SDS011;38074;51.232;6.826;2023-09-07T18:42:53;5.57;;;2.47;;
52072;SDS011;38074;51.232;6.826;2023-09-07T18:50:08;3.67;;;2.37;;
52072;SDS011;38074;51.232;6.826;2023-09-07T18:57:24;5.57;;;2.80;;
52072;SDS011;38074;51.232;6.826;2023-09-07T19:04:41;6.38;;;3.42;;
52072;SDS011;38074;51.232;6.826;2023-09-07T19:11:56;7.43;;;3.20;;
52072;SDS011;38074;51.232;6.826;2023-09-07T19:19:12;5.00;;;3.90;;
52072;SDS011;38074;51.232;6.826;2023-09-07T19:26:28;5.63;;;4.07;;
52072;SDS011;38074;51.232;6.826;2023-09-07T19:33:47;6.80;;;3.72;;
52072;SDS011;38074;51.232;6.826;2023-09-07T19:41:06;6.88;;;4.22;;
52072;SDS011;38074;51.232;6.826;2023-09-07T19:48:22;6.53;;;4.03;;
52072;SDS011;38074;51.232;6.826;2023-09-07T19:55:37;5.07;;;3.20;;
52072;SDS011;38074;51.232;6.826;2023-09-07T20:02:53;4.87;;;3.50;;
52072;SDS011;38074;51.232;6.826;2023-09-07T20:10:11;5.70;;;3.75;;
52072;SDS011;38074;51.232;6.826;2023-09-07T20:17:27;5.20;;;3.60;;
52072;SDS011;38074;51.232;6.826;2023-09-07T20:24:42;5.47;;;3.27;;
52072;SDS011;38074;51.232;6.826;2023-09-07T20:31:58;6.23;;;3.57;;
52072;SDS011;38074;51.232;6.826;2023-09-07T20:39:13;5.10;;;3.37;;
52072;SDS011;38074;51.232;6.826;2023-09-07T20:46:29;4.40;;;3.37;;
52072;SDS011;38074;51.232;6.826;2023-09-07T20:53:45;5.13;;;3.27;;
52072;SDS011;38074;51.232;6.826;2023-09-07T21:01:00;4.10;;;3.07;;
52072;SDS011;38074;51.232;6.826;2023-09-07T21:08:20;3.75;;;3.22;;
52072;SDS011;38074;51.232;6.826;2023-09-07T21:15:35;4.27;;;2.83;;
52072;SDS011;38074;51.232;6.826;2023-09-07T21:22:51;4.53;;;2.90;;
52072;SDS011;38074;51.232;6.826;2023-09-07T21:30:07;3.70;;;2.63;;
52072;SDS011;38074;51.232;6.826;2023-09-07T21:37:23;6.17;;;3.20;;
52072;SDS011;38074;51.232;6.826;2023-09-07T21:44:39;4.13;;;3.07;;
52072;SDS011;38074;51.232;6.826;2023-09-07T21:51:54;5.87;;;3.50;;
52072;SDS011;38074;51.232;6.826;2023-09-07T21:59:10;3.97;;;3.37;;
52072;SDS011;38074;51.232;6.826;2023-09-07T22:06:25;3.90;;;3.17;;
52072;SDS011;38074;51.232;6.826;2023-09-07T22:13:41;4.40;;;3.23;;
52072;SDS011;38074;51.232;6.826;2023-09-07T22:20:57;4.53;;;3.30;;
52072;SDS011;38074;51.232;6.826;2023-09-07T22:28:13;5.77;;;3.60;;
52072;SDS011;38074;51.232;6.826;2023-09-07T22:35:29;4.72;;;3.58;;
52072;SDS011;38074;51.232;6.826;2023-09-07T22:42:44;4.63;;;3.67;;
52072;SDS011;38074;51.232;6.826;2023-09-07T22:50:01;4.78;;;3.78;;
52072;SDS011;38074;51.232;6.826;2023-09-07T22:57:18;5.18;;;3.53;;
52072;SDS011;38074;51.232;6.826;2023-09-07T23:04:33;4.73;;;3.17;;
52072;SDS011;38074;51.232;6.826;2023-09-07T23:11:49;4.97;;;3.47;;
52072;SDS011;38074;51.232;6.826;2023-09-07T23:19:05;3.87;;;3.10;;
52072;SDS011;38074;51.232;6.826;2023-09-07T23:26:20;4.50;;;2.93;;
52072;SDS011;38074;51.232;6.826;2023-09-07T23:33:36;4.67;;;3.57;;
52072;SDS011;38074;51.232;6.826;2023-09-07T23:40:51;4.73;;;3.10;;
52072;SDS011;38074;51.232;6.826;2023-09-07T23:48:07;5.27;;;3.20;;
52072;SDS011;38074;51.232;6.826;2023-09-07T23:55:22;3.40;;;2.87;;
